createdAt,value
2018-05-02T00:00:22.224Z,100158.20
2018-05-02T00:02:50.565Z,100154.56
2018-05-02T00:05:18.872Z,100155.25
2018-05-02T00:07:47.166Z,100161.19
2018-05-02T00:10:15.450Z,100152.30
2018-05-02T00:12:43.870Z,100155.57
2018-05-02T00:15:13.012Z,100150.77
2018-05-02T00:17:41.316Z,100156.34
2018-05-02T00:20:09.630Z,100149.25
2018-05-02T00:22:38.021Z,100162.23
2018-05-02T00:25:06.406Z,100159.08
2018-05-02T00:27:34.703Z,100155.66
2018-05-02T00:30:02.996Z,100157.69
2018-05-02T00:32:31.296Z,100158.72
2018-05-02T00:35:00.360Z,100153.13
2018-05-02T00:37:28.665Z,100149.83
2018-05-02T00:39:56.940Z,100161.27
2018-05-02T00:42:25.222Z,100155.30
2018-05-02T00:44:54.335Z,100154.09
2018-05-02T00:47:23.471Z,100153.44
2018-05-02T00:49:52.523Z,100151.47
2018-05-02T00:52:21.565Z,100150.27
2018-05-02T00:54:49.857Z,100146.75
2018-05-02T00:57:18.198Z,100149.67
2018-05-02T00:59:46.675Z,100156.00
2018-05-02T01:02:15.049Z,100159.78
2018-05-02T01:04:43.350Z,100159.16
2018-05-02T01:07:11.678Z,100161.12
2018-05-02T01:09:40.718Z,100157.58
2018-05-02T01:12:09.111Z,100152.80
2018-05-02T01:14:37.403Z,100153.13
2018-05-02T01:17:05.664Z,100165.68
2018-05-02T01:19:33.984Z,100163.95
2018-05-02T01:22:03.048Z,100161.43
2018-05-02T01:24:32.079Z,100169.95
2018-05-02T01:27:01.124Z,100171.27
2018-05-02T01:29:29.416Z,100170.55
2018-05-02T01:31:57.728Z,100170.66
2018-05-02T01:34:26.759Z,100168.63
2018-05-02T01:36:55.087Z,100177.73
2018-05-02T01:39:23.401Z,100177.76
2018-05-02T01:41:51.946Z,100172.06
2018-05-02T01:44:20.245Z,100172.63
2018-05-02T01:46:49.287Z,100175.68
2018-05-02T01:49:24.209Z,100172.20
2018-05-02T01:51:52.955Z,100176.85
2018-05-02T01:54:22.009Z,100172.06
2018-05-02T01:56:50.285Z,100169.54
2018-05-02T01:59:18.567Z,100170.22
2018-05-02T02:01:46.822Z,100164.45
2018-05-02T02:04:15.097Z,100166.13
2018-05-02T02:06:43.396Z,100165.72
2018-05-02T02:09:12.474Z,100157.97
2018-05-02T02:11:40.750Z,100157.23
2018-05-02T02:14:09.031Z,100148.96
2018-05-02T02:16:37.360Z,100146.56
2018-05-02T02:19:06.460Z,100147.27
2018-05-02T02:21:35.524Z,100138.73
2018-05-02T02:24:03.846Z,100143.91
2018-05-02T02:26:32.152Z,100145.87
2018-05-02T02:29:00.428Z,100157.25
2018-05-02T02:31:28.725Z,100149.80
2018-05-02T02:33:57.448Z,100149.91
2018-05-02T02:36:25.664Z,100154.37
2018-05-02T02:38:53.956Z,100149.25
2018-05-02T02:41:22.240Z,100151.69
2018-05-02T02:43:50.512Z,100149.30
2018-05-02T02:46:18.862Z,100146.84
2018-05-02T02:48:47.152Z,100144.72
2018-05-02T02:51:15.461Z,100149.67
2018-05-02T02:53:43.776Z,100149.77
2018-05-02T02:56:12.279Z,100153.50
2018-05-02T02:58:40.565Z,100147.11
2018-05-02T03:01:08.872Z,100146.38
2018-05-02T03:03:37.169Z,100143.36
2018-05-02T03:06:05.447Z,100144.14
2018-05-02T03:08:34.531Z,100144.38
2018-05-02T03:11:02.814Z,100140.30
2018-05-02T03:13:31.119Z,100133.81
2018-05-02T03:15:59.560Z,100142.20
2018-05-02T03:18:27.831Z,100142.03
2018-05-02T03:20:56.129Z,100142.39
2018-05-02T03:23:24.466Z,100137.62
2018-05-02T03:25:52.725Z,100138.95
2018-05-02T03:28:21.024Z,100142.89
2018-05-02T03:30:49.326Z,100134.60
2018-05-02T03:33:17.603Z,100137.50
2018-05-02T03:35:46.888Z,100131.48
2018-05-02T03:38:15.185Z,100129.02
2018-05-02T03:40:44.240Z,100127.88
2018-05-02T03:43:12.616Z,100123.53
2018-05-02T03:45:40.972Z,100117.14
2018-05-02T03:48:09.238Z,100123.80
2018-05-02T03:50:38.338Z,100123.31
2018-05-02T03:53:07.408Z,100129.29
2018-05-02T03:55:35.691Z,100130.52
2018-05-02T03:58:03.992Z,100137.41
2018-05-02T04:04:01.371Z,100137.95
2018-05-02T04:06:47.394Z,100136.82
2018-05-02T04:09:15.699Z,100144.89
2018-05-02T04:11:44.025Z,100147.02
2018-05-02T04:14:12.292Z,100148.66
2018-05-02T04:16:40.586Z,100152.83
2018-05-02T04:19:08.885Z,100149.02
2018-05-02T04:21:37.199Z,100153.41
2018-05-02T04:24:05.854Z,100150.64
2018-05-02T04:26:34.189Z,100146.69
2018-05-02T04:29:02.498Z,100148.92
2018-05-02T04:31:30.782Z,100142.57
2018-05-02T04:33:59.093Z,100142.56
2018-05-02T04:36:27.359Z,100150.01
2018-05-02T04:38:55.668Z,100153.00
2018-05-02T04:41:24.698Z,100156.78
2018-05-02T04:43:52.993Z,100156.91
2018-05-02T04:46:21.284Z,100162.16
2018-05-02T04:48:49.564Z,100166.88
2018-05-02T04:51:17.841Z,100172.40
2018-05-02T04:53:46.163Z,100177.62
2018-05-02T04:56:14.418Z,100179.94
2018-05-02T04:58:43.519Z,100178.73
2018-05-02T05:01:12.558Z,100184.42
2018-05-02T05:03:40.862Z,100186.21
2018-05-02T05:06:09.500Z,100182.19
2018-05-02T05:08:37.822Z,100183.58
2018-05-02T05:11:06.131Z,100184.28
2018-05-02T05:13:35.207Z,100179.72
2018-05-02T05:16:03.481Z,100174.96
2018-05-02T05:18:31.752Z,100172.88
2018-05-02T05:21:00.050Z,100184.00
2018-05-02T05:23:29.116Z,100186.53
2018-05-02T05:25:57.421Z,100190.48
2018-05-02T05:28:25.700Z,100187.19
2018-05-02T05:30:54.807Z,100188.70
2018-05-02T05:33:23.852Z,100196.41
2018-05-02T05:35:52.145Z,100188.95
2018-05-02T05:38:20.432Z,100190.56
2018-05-02T05:40:48.729Z,100183.47
2018-05-02T05:43:17.863Z,100175.75
2018-05-02T05:45:46.144Z,100180.34
2018-05-02T05:48:14.476Z,100182.47
2018-05-02T05:50:43.529Z,100183.72
2018-05-02T05:53:12.138Z,100184.83
2018-05-02T05:55:40.465Z,100184.48
2018-05-02T05:58:08.772Z,100179.83
2018-05-02T06:00:41.233Z,100187.92
2018-05-02T06:03:14.616Z,100185.83
2018-05-02T06:05:42.910Z,100184.78
2018-05-02T06:08:12.360Z,100189.61
2018-05-02T06:10:41.419Z,100190.82
2018-05-02T06:13:09.696Z,100182.05
2018-05-02T06:15:38.013Z,100186.59
2018-05-02T06:18:07.069Z,100182.39
2018-05-02T06:20:35.393Z,100179.41
2018-05-02T06:23:04.482Z,100179.88
2018-05-02T06:25:33.574Z,100184.38
2018-05-02T06:28:01.861Z,100199.36
2018-05-02T06:30:30.910Z,100194.98
2018-05-02T06:32:59.267Z,100187.02
2018-05-02T06:35:27.572Z,100184.13
2018-05-02T06:37:55.994Z,100183.56
2018-05-02T06:40:24.212Z,100186.34
2018-05-02T06:42:52.505Z,100182.34
2018-05-02T06:45:20.821Z,100189.20
2018-05-02T06:47:49.865Z,100191.78
2018-05-02T06:50:18.260Z,100187.86
2018-05-02T06:52:46.528Z,100181.41
2018-05-02T06:55:14.846Z,100167.32
2018-05-02T06:57:43.180Z,100177.05
2018-05-02T07:00:11.453Z,100174.11
2018-05-02T07:02:39.780Z,100170.06
2018-05-02T07:05:08.826Z,100168.94
2018-05-02T07:07:37.899Z,100168.30
2018-05-02T07:10:06.187Z,100163.50
2018-05-02T07:12:34.527Z,100156.86
2018-05-02T07:15:03.623Z,100158.41
2018-05-02T07:17:32.675Z,100160.91
2018-05-02T07:20:00.982Z,100155.33
2018-05-02T07:22:29.277Z,100157.23
2018-05-02T07:24:58.421Z,100159.48
2018-05-02T07:27:26.707Z,100157.70
2018-05-02T07:29:54.998Z,100150.11
2018-05-02T07:32:23.290Z,100141.42
2018-05-02T07:34:51.638Z,100163.33
2018-05-02T07:37:20.244Z,100159.02
2018-05-02T07:39:48.559Z,100158.71
2018-05-02T07:42:16.894Z,100164.41
2018-05-02T07:44:45.181Z,100161.73
2018-05-02T07:47:13.724Z,100165.95
2018-05-02T07:49:42.016Z,100162.45
2018-05-02T07:52:10.327Z,100166.16
2018-05-02T07:54:38.681Z,100170.77
2018-05-02T07:57:07.007Z,100178.05
2018-05-02T07:59:36.056Z,100176.92
2018-05-02T08:02:04.331Z,100171.12
2018-05-02T08:04:32.678Z,100168.23
2018-05-02T08:07:00.960Z,100173.31
2018-05-02T08:09:29.280Z,100185.16
2018-05-02T08:11:57.592Z,100171.66
2018-05-02T08:14:25.917Z,100180.36
2018-05-02T08:16:54.234Z,100177.55
2018-05-02T08:19:23.400Z,100164.88
2018-05-02T08:21:51.688Z,100165.73
2018-05-02T08:24:20.002Z,100162.69
2018-05-02T08:26:48.317Z,100152.97
2018-05-02T08:29:16.626Z,100155.33
2018-05-02T08:31:44.977Z,100157.09
2018-05-02T08:34:15.779Z,100143.70
2018-05-02T08:36:44.166Z,100143.87
2018-05-02T08:39:12.493Z,100147.61
2018-05-02T08:41:40.792Z,100142.88
2018-05-02T08:44:09.857Z,100142.44
2018-05-02T08:46:38.158Z,100140.22
2018-05-02T08:49:08.092Z,100136.79
2018-05-02T08:51:36.512Z,100141.28
2018-05-02T08:54:05.075Z,100142.51
2018-05-02T08:56:34.261Z,100131.63
2018-05-02T08:59:02.589Z,100123.27
2018-05-02T09:01:30.905Z,100131.51
2018-05-02T09:03:59.962Z,100122.11
2018-05-02T09:06:28.703Z,100116.77
2018-05-02T09:08:57.045Z,100114.31
2018-05-02T09:11:25.315Z,100115.84
2018-05-02T09:13:53.630Z,100103.50
2018-05-02T09:16:21.953Z,100102.58
2018-05-02T09:18:50.262Z,100096.08
2018-05-02T09:21:19.412Z,100098.30
2018-05-02T09:23:47.729Z,100084.66
2018-05-02T09:26:16.041Z,100085.28
2018-05-02T09:28:44.379Z,100082.98
2018-05-02T09:31:12.690Z,100079.94
2018-05-02T09:33:40.987Z,100080.05
2018-05-02T09:36:09.278Z,100080.84
2018-05-02T09:38:37.609Z,100065.37
2018-05-02T09:41:06.740Z,100072.29
2018-05-02T09:43:35.038Z,100071.25
2018-05-02T09:46:03.323Z,100065.95
2018-05-02T09:48:32.157Z,100068.36
2018-05-02T09:51:00.488Z,100068.50
2018-05-02T09:53:28.806Z,100065.70
2018-05-02T09:55:57.253Z,100058.62
2018-05-02T09:58:25.538Z,100060.53
2018-05-02T10:00:53.882Z,100054.41
2018-05-02T10:03:22.163Z,100055.31
2018-05-02T10:05:50.747Z,100048.97
2018-05-02T10:08:19.127Z,100040.34
2018-05-02T10:10:47.499Z,100050.23
2018-05-02T10:13:15.871Z,100051.40
2018-05-02T10:15:44.172Z,100051.25
2018-05-02T10:18:12.512Z,100048.98
2018-05-02T10:20:40.828Z,100047.23
2018-05-02T10:23:09.135Z,100051.84
2018-05-02T10:25:41.664Z,100046.01
2018-05-02T10:28:09.987Z,100044.21
2018-05-02T10:30:38.349Z,100041.80
2018-05-02T10:33:06.620Z,100036.72
2018-05-02T10:35:35.351Z,100032.53
2018-05-02T10:38:04.419Z,100044.86
2018-05-02T10:40:32.779Z,100036.27
2018-05-02T10:43:01.062Z,100033.52
2018-05-02T10:45:29.375Z,100039.53
2018-05-02T10:47:58.432Z,100041.23
2018-05-02T10:50:26.818Z,100027.19
2018-05-02T10:52:55.078Z,100030.66
2018-05-02T10:55:23.412Z,100025.73
2018-05-02T10:57:51.717Z,100022.14
2018-05-02T11:00:20.036Z,100014.50
2018-05-02T11:02:48.359Z,100023.92
2018-05-02T11:05:16.691Z,100026.05
2018-05-02T11:07:45.009Z,100022.45
2018-05-02T11:10:13.316Z,100032.84
2018-05-02T11:12:42.016Z,100019.95
2018-05-02T11:15:10.317Z,100025.19
2018-05-02T11:17:39.040Z,100024.02
2018-05-02T11:20:07.347Z,100017.26
2018-05-02T11:22:35.634Z,100021.91
2018-05-02T11:25:03.949Z,100016.66
2018-05-02T11:27:33.010Z,100013.73
2018-05-02T11:30:01.435Z,100010.14
2018-05-02T11:32:30.476Z,100003.19
2018-05-02T11:34:58.790Z,100002.20
2018-05-02T11:37:27.091Z,99992.16
2018-05-02T11:39:56.157Z,99999.63
2018-05-02T11:42:32.484Z,99994.69
2018-05-02T11:45:00.853Z,99991.98
2018-05-02T11:47:29.120Z,99991.14
2018-05-02T11:49:57.414Z,99994.38
2018-05-02T11:52:25.715Z,99985.70
2018-05-02T11:54:54.795Z,99999.36
2018-05-02T11:57:23.082Z,99995.09
2018-05-02T11:59:51.395Z,99987.44
2018-05-02T12:02:20.481Z,99987.02
2018-05-02T12:04:48.840Z,99982.80
2018-05-02T12:07:17.188Z,99985.46
2018-05-02T12:09:45.470Z,99984.66
2018-05-02T12:12:13.773Z,99981.21
2018-05-02T12:14:42.312Z,99979.09
2018-05-02T12:17:10.603Z,99970.61
2018-05-02T12:19:38.881Z,99974.73
2018-05-02T12:22:07.186Z,99966.05
2018-05-02T12:24:35.476Z,99954.83
2018-05-02T12:27:03.785Z,99947.45
2018-05-02T12:29:32.836Z,99961.61
2018-05-02T12:32:01.298Z,99943.32
2018-05-02T12:34:29.590Z,99948.54
2018-05-02T12:36:58.120Z,99948.13
2018-05-02T12:39:27.171Z,99945.22
2018-05-02T12:41:55.456Z,99943.24
2018-05-02T12:44:23.772Z,99943.98
2018-05-02T12:46:52.091Z,99938.75
2018-05-02T12:49:20.435Z,99939.60
2018-05-02T12:51:49.477Z,99938.06
2018-05-02T12:54:17.760Z,99929.98
2018-05-02T12:56:46.380Z,99932.48
2018-05-02T12:59:15.418Z,99934.37
2018-05-02T13:01:43.804Z,99926.27
2018-05-02T13:04:12.160Z,99923.01
2018-05-02T13:06:44.776Z,99918.14
2018-05-02T13:09:13.090Z,99916.97
2018-05-02T13:11:46.625Z,99910.25
2018-05-02T13:14:14.978Z,99907.24
2018-05-02T13:16:44.068Z,99904.88
2018-05-02T13:19:13.672Z,99896.55
2018-05-02T13:21:41.990Z,99894.94
2018-05-02T13:24:10.360Z,99897.36
2018-05-02T13:26:38.646Z,99890.33
2018-05-02T13:29:06.945Z,99888.59
2018-05-02T13:31:35.262Z,99879.16
2018-05-02T13:34:08.488Z,99884.37
2018-05-02T13:36:37.650Z,99878.27
2018-05-02T13:39:06.772Z,99872.55
2018-05-02T13:41:35.071Z,99871.77
2018-05-02T13:44:03.384Z,99874.66
2018-05-02T13:46:31.689Z,99865.09
2018-05-02T13:49:00.028Z,99867.70
2018-05-02T13:51:29.250Z,99868.53
2018-05-02T13:53:58.315Z,99871.37
2018-05-02T13:56:26.603Z,99858.84
2018-05-02T13:58:55.148Z,99855.27
2018-05-02T14:01:23.444Z,99857.23
2018-05-02T14:03:52.127Z,99850.77
2018-05-02T14:06:24.693Z,99847.27
2018-05-02T14:08:52.990Z,99847.04
2018-05-02T14:11:21.288Z,99835.11
2018-05-02T14:13:49.776Z,99833.33
2018-05-02T14:16:18.072Z,99833.75
2018-05-02T14:18:47.133Z,99835.50
2018-05-02T14:21:15.422Z,99821.91
2018-05-02T14:23:43.713Z,99827.50
2018-05-02T14:26:12.762Z,99824.13
2018-05-02T14:28:41.065Z,99818.70
2018-05-02T14:31:09.381Z,99822.98
2018-05-02T14:33:37.771Z,99820.22
2018-05-02T14:36:06.053Z,99817.68
2018-05-02T14:38:34.373Z,99820.23
2018-05-02T14:41:02.682Z,99820.47
2018-05-02T14:43:31.792Z,99809.89
2018-05-02T14:46:00.099Z,99810.86
2018-05-02T14:48:28.433Z,99813.50
2018-05-02T14:50:57.494Z,99808.45
2018-05-02T14:53:25.794Z,99806.18
2018-05-02T14:55:54.332Z,99809.91
2018-05-02T14:58:22.636Z,99809.45
2018-05-02T15:00:50.940Z,99812.20
2018-05-02T15:03:20.000Z,99815.53
2018-05-02T15:05:48.349Z,99809.55
2018-05-02T15:08:16.800Z,99804.56
2018-05-02T15:10:45.036Z,99802.55
2018-05-02T15:13:13.395Z,99797.91
2018-05-02T15:15:41.781Z,99794.01
2018-05-02T15:18:10.108Z,99789.02
2018-05-02T15:20:39.248Z,99791.83
2018-05-02T15:23:07.572Z,99788.56
2018-05-02T15:25:35.859Z,99791.83
2018-05-02T15:28:04.218Z,99801.22
2018-05-02T15:30:32.534Z,99797.70
2018-05-02T15:33:00.826Z,99798.30
2018-05-02T15:35:29.144Z,99793.31
2018-05-02T15:37:57.693Z,99795.20
2018-05-02T15:40:26.049Z,99795.16
2018-05-02T15:42:54.325Z,99795.23
2018-05-02T15:45:22.643Z,99801.91
2018-05-02T15:47:50.917Z,99794.63
2018-05-02T15:50:19.259Z,99788.30
2018-05-02T15:52:47.563Z,99789.89
2018-05-02T15:55:15.897Z,99786.80
2018-05-02T15:57:44.240Z,99782.61
2018-05-02T16:00:12.539Z,99793.12
2018-05-02T16:02:41.649Z,99795.94
2018-05-02T16:05:10.703Z,99795.61
2018-05-02T16:07:39.013Z,99795.24
2018-05-02T16:10:08.160Z,99788.31
2018-05-02T16:12:36.462Z,99793.02
2018-05-02T16:15:04.774Z,99790.56
2018-05-02T16:17:33.196Z,99790.77
2018-05-02T16:20:01.881Z,99787.41
2018-05-02T16:22:30.164Z,99785.67
2018-05-02T16:24:58.465Z,99791.23
2018-05-02T16:27:26.983Z,99784.25
2018-05-02T16:29:55.317Z,99784.20
2018-05-02T16:32:23.725Z,99775.89
2018-05-02T16:34:52.068Z,99783.41
2018-05-02T16:37:20.356Z,99770.07
2018-05-02T16:39:48.711Z,99775.52
2018-05-02T16:42:17.034Z,99783.03
2018-05-02T16:44:46.142Z,99775.09
2018-05-02T16:47:15.229Z,99772.52
2018-05-02T16:49:43.806Z,99773.34
2018-05-02T16:52:12.226Z,99767.69
2018-05-02T16:54:40.544Z,99764.72
2018-05-02T16:57:08.856Z,99770.94
2018-05-02T16:59:38.017Z,99761.02
2018-05-02T17:02:06.798Z,99761.27
2018-05-02T17:04:35.482Z,99765.52
2018-05-02T17:07:04.092Z,99766.40
2018-05-02T17:09:32.422Z,99768.33
2018-05-02T17:12:00.743Z,99771.98
2018-05-02T17:14:29.200Z,99774.61
2018-05-02T17:16:57.480Z,99768.70
2018-05-02T17:19:25.889Z,99772.73
2018-05-02T17:21:54.181Z,99771.10
2018-05-02T17:24:23.345Z,99774.34
2018-05-02T17:26:56.012Z,99771.93
2018-05-02T17:29:24.371Z,99768.28
2018-05-02T17:31:52.980Z,99765.98
2018-05-02T17:34:21.364Z,99769.03
2018-05-02T17:36:49.745Z,99767.16
2018-05-02T17:39:22.209Z,99763.34
2018-05-02T17:41:55.637Z,99767.36
2018-05-02T17:44:25.007Z,99765.31
2018-05-02T17:46:53.375Z,99767.30
2018-05-02T17:49:21.861Z,99764.75
2018-05-02T17:51:51.000Z,99764.88
2018-05-02T17:54:20.091Z,99769.58
2018-05-02T17:56:48.411Z,99769.51
2018-05-02T17:59:16.779Z,99770.55
2018-05-02T18:01:45.915Z,99768.59
2018-05-02T18:04:14.684Z,99767.25
2018-05-02T18:06:43.189Z,99765.56
2018-05-02T18:09:11.621Z,99767.31
2018-05-02T18:11:40.046Z,99772.72
2018-05-02T18:14:08.465Z,99768.75
2018-05-02T18:16:37.892Z,99767.06
2018-05-02T18:19:07.027Z,99766.75
2018-05-02T18:21:35.502Z,99775.23
2018-05-02T18:24:04.608Z,99776.84
2018-05-02T18:26:33.812Z,99786.97
2018-05-02T18:29:08.705Z,99776.42
2018-05-02T18:31:37.017Z,99778.36
2018-05-02T18:34:05.349Z,99779.48
2018-05-02T18:36:34.777Z,99777.95
2018-05-02T18:39:03.371Z,99775.56
2018-05-02T18:41:35.742Z,99777.52
2018-05-02T18:44:04.160Z,99778.31
2018-05-02T18:46:32.721Z,99778.11
2018-05-02T18:49:01.194Z,99787.17
2018-05-02T18:51:29.556Z,99787.23
2018-05-02T18:53:58.316Z,99786.77
2018-05-02T18:56:27.082Z,99789.89
2018-05-02T18:58:56.350Z,99781.27
2018-05-02T19:01:24.732Z,99774.53
2018-05-02T19:03:53.258Z,99776.41
2018-05-02T19:06:21.784Z,99781.08
2018-05-02T19:08:50.998Z,99783.64
2018-05-02T19:11:19.403Z,99789.31
2018-05-02T19:14:07.721Z,99784.62
2018-05-02T19:16:36.073Z,99793.31
2018-05-02T19:19:10.313Z,99798.56
2018-05-02T19:21:38.757Z,99800.12
2018-05-02T19:24:07.204Z,99805.22
2018-05-02T19:26:37.574Z,99809.23
2018-05-02T19:29:06.880Z,99810.39
2018-05-02T19:31:40.932Z,99815.00
2018-05-02T19:34:09.371Z,99816.59
2018-05-02T19:36:37.718Z,99815.08
2018-05-02T19:39:07.435Z,99820.35
2018-05-02T19:41:46.142Z,99825.19
2018-05-02T19:44:15.310Z,99828.23
2018-05-02T19:46:43.730Z,99823.27
2018-05-02T19:49:12.972Z,99820.97
2018-05-02T19:51:47.007Z,99821.05
2018-05-02T19:54:15.412Z,99821.55
2018-05-02T19:56:44.619Z,99815.83
2018-05-02T19:59:13.027Z,99817.11
2018-05-02T20:01:47.269Z,99815.00
2018-05-02T20:04:16.076Z,99814.86
2018-05-02T20:06:44.476Z,99814.55
2018-05-02T20:09:18.776Z,99817.45
2018-05-02T20:11:52.832Z,99820.69
2018-05-02T20:14:21.273Z,99818.02
2018-05-02T20:16:49.633Z,99821.84
2018-05-02T20:19:18.042Z,99823.15
2018-05-02T20:21:46.547Z,99824.66
2018-05-02T20:24:15.769Z,99820.86
2018-05-02T20:26:44.111Z,99820.36
2018-05-02T20:29:12.502Z,99817.84
2018-05-02T20:31:41.127Z,99813.37
2018-05-02T20:34:09.452Z,99825.09
2018-05-02T20:36:37.788Z,99820.20
2018-05-02T20:39:06.049Z,99824.25
2018-05-02T20:41:34.448Z,99825.31
2018-05-02T20:44:02.921Z,99827.73
2018-05-02T20:46:31.399Z,99824.03
2018-05-02T20:48:59.693Z,99832.36
2018-05-02T20:51:28.503Z,99830.59
2018-05-02T20:54:05.574Z,99831.33
2018-05-02T20:56:41.674Z,99828.63
2018-05-02T20:59:16.980Z,99826.45
2018-05-02T21:01:55.108Z,99827.17
2018-05-02T21:04:39.147Z,99830.03
2018-05-02T21:07:25.810Z,99831.39
2018-05-02T21:09:57.753Z,99826.32
2018-05-02T21:12:26.462Z,99830.63
2018-05-02T21:14:54.816Z,99828.08
2018-05-02T21:17:23.278Z,99840.66
2018-05-02T21:19:52.010Z,99841.92
2018-05-02T21:22:21.587Z,99840.91
2018-05-02T21:24:49.971Z,99838.88
2018-05-02T21:27:19.122Z,99843.11
2018-05-02T21:29:47.604Z,99840.77
2018-05-02T21:32:15.956Z,99840.11
2018-05-02T21:34:44.337Z,99838.94
2018-05-02T21:37:13.242Z,99835.96
2018-05-02T21:39:41.582Z,99839.31
2018-05-02T21:42:09.921Z,99833.57
2018-05-02T21:44:38.345Z,99838.73
2018-05-02T21:47:06.918Z,99842.66
2018-05-02T21:49:35.415Z,99834.70
2018-05-02T21:52:03.789Z,99841.33
2018-05-02T21:54:32.266Z,99843.06
2018-05-02T21:57:00.648Z,99842.14
2018-05-02T21:59:29.146Z,99843.55
2018-05-02T22:01:57.537Z,99851.19
2018-05-02T22:04:26.052Z,99844.68
2018-05-02T22:06:55.360Z,99852.31
2018-05-02T22:09:23.700Z,99848.08
2018-05-02T22:11:52.181Z,99840.87
2018-05-02T22:14:20.652Z,99852.03
2018-05-02T22:16:48.986Z,99843.77
2018-05-02T22:19:17.319Z,99840.84
2018-05-02T22:24:20.238Z,99839.95
2018-05-02T22:26:48.518Z,99840.47
2018-05-02T22:29:16.876Z,99851.29
2018-05-02T22:31:45.245Z,99853.66
2018-05-02T22:34:13.546Z,99852.69
2018-05-02T22:36:41.868Z,99866.07
2018-05-02T22:39:10.180Z,99861.67
2018-05-02T22:41:38.490Z,99863.11
2018-05-02T22:44:06.851Z,99862.88
2018-05-02T22:46:35.231Z,99861.50
2018-05-02T22:49:03.535Z,99869.59
2018-05-02T22:51:32.315Z,99862.88
2018-05-02T22:54:00.625Z,99861.30
2018-05-02T22:56:29.731Z,99853.83
2018-05-02T22:58:58.141Z,99857.90
2018-05-02T23:01:26.473Z,99857.13
2018-05-02T23:03:56.510Z,99858.20
2018-05-02T23:06:24.781Z,99862.47
2018-05-02T23:08:53.185Z,99863.90
2018-05-02T23:11:21.501Z,99862.19
2018-05-02T23:13:49.938Z,99866.31
2018-05-02T23:16:18.279Z,99863.61
2018-05-02T23:18:46.600Z,99871.08
2018-05-02T23:21:15.710Z,99854.19
2018-05-02T23:23:44.148Z,99860.50
2018-05-02T23:26:12.486Z,99853.28
2018-05-02T23:28:40.795Z,99854.58
2018-05-02T23:31:09.845Z,99856.16
2018-05-02T23:33:38.204Z,99851.05
2018-05-02T23:36:06.582Z,99848.03
2018-05-02T23:38:35.260Z,99841.56
2018-05-02T23:41:03.869Z,99842.55
2018-05-02T23:43:32.194Z,99844.23
2018-05-02T23:46:01.276Z,99843.09
2018-05-02T23:48:29.673Z,99837.16
2018-05-02T23:50:58.729Z,99839.42
2018-05-02T23:53:27.027Z,99837.45
2018-05-02T23:55:55.436Z,99846.09
2018-05-02T23:58:24.683Z,99840.36
